createdAt,value
2022-09-20T00:00:25.294Z,0
2022-09-20T00:00:42.245Z,0
2022-09-20T00:01:12.891Z,1.77
2022-09-20T00:01:35.619Z,1.77
2022-09-20T00:02:16.846Z,1.12
2022-09-20T00:02:35.851Z,1.44
2022-09-20T00:03:05.288Z,1.44
2022-09-20T00:03:36.938Z,1.44
2022-09-20T00:04:09.149Z,0
2022-09-20T00:04:36.008Z,.32
2022-09-20T00:04:56.851Z,1.12
2022-09-20T00:05:29.033Z,0
2022-09-20T00:06:01.484Z,1.12
2022-09-20T00:06:34.565Z,1.44
2022-09-20T00:07:05.083Z,.32
2022-09-20T00:07:36.814Z,0
2022-09-20T00:08:09.103Z,.32
2022-09-20T00:08:37.213Z,0
2022-09-20T00:08:56.811Z,0
2022-09-20T00:09:28.784Z,0
2022-09-20T00:10:02.273Z,0
2022-09-20T00:10:33.090Z,0
2022-09-20T00:11:05.242Z,0
2022-09-20T00:11:35.567Z,0
2022-09-20T00:11:52.908Z,0
2022-09-20T00:12:25.517Z,0
2022-09-20T00:12:42.176Z,0
2022-09-20T00:13:12.834Z,0
2022-09-20T00:13:35.607Z,0
2022-09-20T00:14:01.169Z,0
2022-09-20T00:14:33.055Z,0
2022-09-20T00:15:05.497Z,0
2022-09-20T00:15:35.710Z,0
2022-09-20T00:15:52.811Z,0
2022-09-20T00:16:25.324Z,0
2022-09-20T00:16:43.284Z,0
2022-09-20T00:17:12.962Z,0
2022-09-20T00:17:35.846Z,0
2022-09-20T00:18:01.145Z,1.12
2022-09-20T00:18:32.908Z,1.12
2022-09-20T00:19:05.467Z,1.77
2022-09-20T00:19:35.638Z,1.77
2022-09-20T00:19:52.607Z,1.12
2022-09-20T00:20:25.845Z,1.44
2022-09-20T00:20:42.546Z,1.77
2022-09-20T00:21:13.930Z,1.77
2022-09-20T00:21:35.565Z,1.77
2022-09-20T00:22:01.120Z,1.77
2022-09-20T00:22:32.826Z,1.44
2022-09-20T00:23:05.224Z,1.12
2022-09-20T00:23:37.153Z,.64
2022-09-20T00:24:08.790Z,.32
2022-09-20T00:24:35.658Z,0
2022-09-20T00:24:56.824Z,0
2022-09-20T00:25:31.570Z,0
2022-09-20T00:26:01.214Z,0
2022-09-20T00:26:33.894Z,0
2022-09-20T00:27:05.634Z,0
2022-09-20T00:27:35.594Z,0
2022-09-20T00:27:52.790Z,0
2022-09-20T00:28:25.101Z,0
2022-09-20T00:28:42.011Z,.64
2022-09-20T00:29:12.717Z,.32
2022-09-20T00:29:36.514Z,0
2022-09-20T00:30:01.102Z,0
2022-09-20T00:30:35.820Z,0
2022-09-20T00:31:05.076Z,0
2022-09-20T00:31:37.394Z,0
2022-09-20T00:32:08.867Z,0
2022-09-20T00:32:35.676Z,.32
2022-09-20T00:32:57.516Z,0
2022-09-20T00:33:28.834Z,.64
2022-09-20T00:34:02.209Z,1.77
2022-09-20T00:34:32.838Z,.64
2022-09-20T00:35:05.035Z,.64
2022-09-20T00:35:36.067Z,0
2022-09-20T00:36:08.790Z,.32
2022-09-20T00:36:35.580Z,1.44
2022-09-20T00:36:56.752Z,.32
2022-09-20T00:37:28.717Z,1.77
2022-09-20T00:38:01.497Z,1.77
2022-09-20T00:38:32.822Z,1.77
2022-09-20T00:39:12.675Z,1.77
2022-09-20T00:39:36.472Z,2.09
2022-09-20T00:39:52.995Z,1.77
2022-09-20T00:40:25.242Z,1.12
2022-09-20T00:40:42.648Z,1.12
2022-09-20T00:41:13.709Z,1.44
2022-09-20T00:41:36.606Z,.32
2022-09-20T00:42:01.999Z,0
2022-09-20T00:42:33.154Z,1.44
2022-09-20T00:43:05.799Z,1.77
2022-09-20T00:43:35.704Z,1.77
2022-09-20T00:43:52.866Z,1.77
2022-09-20T00:44:25.178Z,.32
2022-09-20T00:44:43.685Z,.32
2022-09-20T00:45:12.948Z,.32
2022-09-20T00:45:36.000Z,.32
2022-09-20T00:46:01.562Z,1.44
2022-09-20T00:46:32.790Z,1.77
2022-09-20T00:47:05.067Z,.64
2022-09-20T00:47:35.682Z,1.12
2022-09-20T00:47:52.820Z,.32
2022-09-20T00:48:25.214Z,1.77
2022-09-20T00:48:42.063Z,1.77
2022-09-20T00:49:12.880Z,2.09
2022-09-20T00:49:35.933Z,2.89
2022-09-20T00:50:01.380Z,1.44
2022-09-20T00:50:33.764Z,1.44
2022-09-20T00:51:05.806Z,2.89
2022-09-20T00:51:36.770Z,2.09
2022-09-20T00:52:10.892Z,2.89
2022-09-20T00:52:36.963Z,2.09
2022-09-20T00:52:56.901Z,.64
2022-09-20T00:53:29.906Z,1.12
2022-09-20T00:54:01.093Z,0
2022-09-20T00:54:32.934Z,2.09
2022-09-20T00:55:05.231Z,2.09
2022-09-20T00:55:36.006Z,2.09
2022-09-20T00:56:08.275Z,2.09
2022-09-20T00:56:25.860Z,2.09
2022-09-20T00:56:43.364Z,1.12
2022-09-20T00:57:12.839Z,1.77
2022-09-20T00:57:37.212Z,1.77
2022-09-20T00:58:01.997Z,2.09
2022-09-20T00:58:32.825Z,1.77
2022-09-20T00:59:05.944Z,2.09
2022-09-20T00:59:35.626Z,2.09
2022-09-20T00:59:52.933Z,1.12
2022-09-20T01:00:26.874Z,.32
2022-09-20T01:00:45.524Z,0
2022-09-20T01:01:12.975Z,.64
2022-09-20T01:01:35.793Z,0
2022-09-20T01:02:01.928Z,1.12
2022-09-20T01:02:32.850Z,1.77
2022-09-20T01:03:05.115Z,1.12
2022-09-20T01:03:36.994Z,.64
2022-09-20T01:04:08.864Z,1.12
2022-09-20T01:04:35.579Z,1.44
2022-09-20T01:04:56.844Z,1.12
2022-09-20T01:05:29.868Z,1.77
2022-09-20T01:06:01.853Z,1.44
2022-09-20T01:06:34.243Z,1.12
2022-09-20T01:07:05.927Z,1.44
2022-09-20T01:07:36.387Z,1.77
2022-09-20T01:08:08.785Z,3.21
2022-09-20T01:08:36.321Z,2.89
2022-09-20T01:08:56.934Z,2.57
2022-09-20T01:09:28.802Z,1.77
2022-09-20T01:10:01.190Z,2.09
2022-09-20T01:10:33.840Z,.64
2022-09-20T01:11:05.018Z,1.77
2022-09-20T01:11:35.642Z,1.44
2022-09-20T01:11:52.817Z,2.57
2022-09-20T01:12:25.072Z,3.54
2022-09-20T01:12:41.918Z,3.54
2022-09-20T01:13:12.821Z,0
2022-09-20T01:13:35.667Z,1.12
2022-09-20T01:14:01.184Z,.32
2022-09-20T01:14:32.775Z,1.12
2022-09-20T01:15:05.197Z,1.77
2022-09-20T01:15:36.619Z,1.44
2022-09-20T01:16:08.883Z,1.44
2022-09-20T01:16:36.169Z,1.77
2022-09-20T01:16:57.869Z,.32
2022-09-20T01:17:28.809Z,1.77
2022-09-20T01:18:01.145Z,1.77
2022-09-20T01:18:32.837Z,1.77
2022-09-20T01:19:05.981Z,1.77
2022-09-20T01:19:35.665Z,1.77
2022-09-20T01:19:52.814Z,1.77
2022-09-20T01:20:25.924Z,2.57
2022-09-20T01:20:42.809Z,2.09
2022-09-20T01:21:12.867Z,1.77
2022-09-20T01:21:35.588Z,1.77
2022-09-20T01:22:01.118Z,2.09
2022-09-20T01:22:36.510Z,2.89
2022-09-20T01:23:05.183Z,1.12
2022-09-20T01:23:36.340Z,.32
2022-09-20T01:23:52.842Z,1.44
2022-09-20T01:24:24.990Z,.64
2022-09-20T01:24:42.284Z,.32
2022-09-20T01:25:12.822Z,1.12
2022-09-20T01:25:35.615Z,1.77
2022-09-20T01:26:01.112Z,0
2022-09-20T01:26:32.769Z,1.44
2022-09-20T01:27:05.416Z,3.54
2022-09-20T01:27:35.648Z,1.44
2022-09-20T01:27:52.818Z,.32
2022-09-20T01:28:26.106Z,2.09
2022-09-20T01:28:42.897Z,2.89
2022-09-20T01:29:12.849Z,1.12
2022-09-20T01:29:35.917Z,2.09
2022-09-20T01:30:01.288Z,1.77
2022-09-20T01:30:33.880Z,1.12
2022-09-20T01:31:04.984Z,2.89
2022-09-20T01:31:36.423Z,3.21
2022-09-20T01:31:52.955Z,1.44
2022-09-20T01:32:25.884Z,1.12
2022-09-20T01:32:44.059Z,1.12
2022-09-20T01:33:12.825Z,.32
2022-09-20T01:33:35.653Z,0
2022-09-20T01:34:01.246Z,2.89
2022-09-20T01:34:34.775Z,1.44
2022-09-20T01:35:04.997Z,2.09
2022-09-20T01:35:35.686Z,2.09
2022-09-20T01:35:52.676Z,1.12
2022-09-20T01:36:25.054Z,1.44
2022-09-20T01:36:41.993Z,4.34
2022-09-20T01:37:12.786Z,.32
2022-09-20T01:37:35.678Z,1.12
2022-09-20T01:38:01.101Z,.32
2022-09-20T01:38:32.827Z,.64
2022-09-20T01:39:04.954Z,.64
2022-09-20T01:39:36.194Z,1.12
2022-09-20T01:39:53.642Z,1.44
2022-09-20T01:40:25.093Z,0
2022-09-20T01:40:42.055Z,0
2022-09-20T01:41:12.827Z,1.77
2022-09-20T01:41:35.949Z,1.77
2022-09-20T01:42:01.155Z,1.77
2022-09-20T01:42:33.511Z,1.77
2022-09-20T01:43:05.037Z,1.77
2022-09-20T01:43:36.172Z,1.77
2022-09-20T01:43:52.929Z,2.89
2022-09-20T01:44:25.000Z,1.77
2022-09-20T01:44:42.034Z,1.12
2022-09-20T01:45:12.889Z,1.77
2022-09-20T01:45:35.729Z,1.77
2022-09-20T01:46:01.083Z,1.12
2022-09-20T01:46:33.715Z,1.12
2022-09-20T01:47:04.951Z,1.12
2022-09-20T01:47:36.743Z,.32
2022-09-20T01:48:08.819Z,1.44
2022-09-20T01:48:35.696Z,1.12
2022-09-20T01:48:56.771Z,0
2022-09-20T01:49:29.696Z,1.12
2022-09-20T01:50:02.177Z,1.44
2022-09-20T01:50:32.780Z,1.12
2022-09-20T01:51:05.052Z,1.77
2022-09-20T01:51:36.333Z,1.77
2022-09-20T01:51:52.821Z,1.77
2022-09-20T01:52:24.939Z,1.44
2022-09-20T01:52:42.510Z,1.77
2022-09-20T01:53:13.815Z,1.12
2022-09-20T01:53:36.279Z,1.12
2022-09-20T01:54:00.991Z,1.77
2022-09-20T01:54:34.053Z,2.89
2022-09-20T01:55:04.897Z,1.44
2022-09-20T01:55:36.231Z,1.44
2022-09-20T01:55:52.696Z,1.44
2022-09-20T01:56:24.968Z,1.12
2022-09-20T01:56:41.891Z,1.44
2022-09-20T01:57:13.817Z,1.12
2022-09-20T01:57:36.137Z,1.12
2022-09-20T01:58:02.306Z,.32
2022-09-20T01:58:33.665Z,.64
2022-09-20T01:59:23.028Z,1.77
2022-09-20T01:59:35.643Z,1.44
2022-09-20T01:59:54.084Z,1.12
2022-09-20T02:00:25.159Z,0
2022-09-20T02:00:42.913Z,1.12
2022-09-20T02:01:12.879Z,1.77
2022-09-20T02:01:38.300Z,1.44
2022-09-20T02:02:01.626Z,0
2022-09-20T02:02:32.865Z,1.77
2022-09-20T02:03:05.673Z,2.89
2022-09-20T02:03:36.447Z,1.44
2022-09-20T02:04:08.771Z,1.77
2022-09-20T02:04:35.603Z,1.77
2022-09-20T02:04:56.780Z,0
2022-09-20T02:05:28.879Z,1.12
2022-09-20T02:06:01.110Z,1.12
2022-09-20T02:06:32.700Z,.32
2022-09-20T02:07:04.880Z,1.77
2022-09-20T02:07:35.648Z,2.57
2022-09-20T02:07:52.825Z,1.77
2022-09-20T02:08:24.998Z,1.77
2022-09-20T02:08:42.023Z,1.77
2022-09-20T02:09:12.852Z,2.89
2022-09-20T02:09:35.673Z,2.89
2022-09-20T02:10:01.072Z,1.77
2022-09-20T02:10:32.776Z,2.89
2022-09-20T02:11:05.943Z,2.09
2022-09-20T02:11:35.647Z,1.77
2022-09-20T02:12:09.470Z,1.77
2022-09-20T02:12:35.934Z,1.44
2022-09-20T02:12:57.875Z,0
2022-09-20T02:13:28.825Z,1.77
2022-09-20T02:14:01.323Z,.64
2022-09-20T02:14:32.815Z,2.09
2022-09-20T02:15:04.940Z,1.44
2022-09-20T02:15:36.336Z,2.09
2022-09-20T02:15:53.618Z,.32
2022-09-20T02:16:25.038Z,1.44
2022-09-20T02:16:42.828Z,1.12
2022-09-20T02:17:12.820Z,1.77
2022-09-20T02:17:35.636Z,1.44
2022-09-20T02:18:01.157Z,1.44
2022-09-20T02:18:32.807Z,1.44
2022-09-20T02:19:04.871Z,.32
2022-09-20T02:19:36.281Z,.32
2022-09-20T02:19:52.820Z,.32
2022-09-20T02:20:24.963Z,.32
2022-09-20T02:20:41.937Z,.32
2022-09-20T02:21:12.834Z,1.44
2022-09-20T02:21:35.695Z,1.77
2022-09-20T02:22:00.951Z,1.44
2022-09-20T02:22:32.803Z,1.77
2022-09-20T02:23:05.071Z,2.57
2022-09-20T02:23:36.378Z,3.54
2022-09-20T02:23:52.887Z,3.54
2022-09-20T02:24:24.972Z,2.09
2022-09-20T02:24:42.029Z,1.77
2022-09-20T02:25:13.695Z,1.77
2022-09-20T02:25:35.652Z,1.44
2022-09-20T02:26:02.371Z,1.44
2022-09-20T02:26:32.771Z,0
2022-09-20T02:27:05.240Z,1.44
2022-09-20T02:27:36.770Z,0
2022-09-20T02:28:08.727Z,0
2022-09-20T02:28:35.644Z,0
2022-09-20T02:28:56.821Z,1.44
2022-09-20T02:29:28.762Z,1.77
2022-09-20T02:30:01.265Z,1.77
2022-09-20T02:30:32.787Z,2.57
2022-09-20T02:31:04.845Z,2.09
2022-09-20T02:31:35.689Z,2.09
2022-09-20T02:31:53.571Z,1.77
2022-09-20T02:32:24.897Z,1.77
2022-09-20T02:32:42.064Z,1.77
2022-09-20T02:33:12.788Z,.32
2022-09-20T02:33:36.578Z,0
2022-09-20T02:34:00.954Z,1.12
2022-09-20T02:34:32.732Z,1.77
2022-09-20T02:35:05.908Z,1.77
2022-09-20T02:35:36.765Z,1.77
2022-09-20T02:36:08.793Z,1.77
2022-09-20T02:36:37.931Z,1.77
2022-09-20T02:36:57.601Z,2.89
2022-09-20T02:37:28.778Z,3.54
2022-09-20T02:38:01.035Z,3.54
2022-09-20T02:38:34.274Z,4.02
2022-09-20T02:39:05.182Z,2.57
2022-09-20T02:39:35.788Z,1.77
2022-09-20T02:39:52.746Z,1.77
2022-09-20T02:40:24.930Z,1.77
2022-09-20T02:40:42.158Z,2.09
2022-09-20T02:41:12.754Z,1.44
2022-09-20T02:41:36.315Z,1.44
2022-09-20T02:42:01.988Z,1.12
2022-09-20T02:42:32.802Z,.32
2022-09-20T02:43:04.869Z,1.12
2022-09-20T02:43:36.285Z,0
2022-09-20T02:43:53.564Z,1.77
2022-09-20T02:44:24.882Z,2.09
2022-09-20T02:44:42.096Z,1.12
2022-09-20T02:45:12.849Z,1.12
2022-09-20T02:45:36.439Z,1.44
2022-09-20T02:46:01.097Z,2.09
2022-09-20T02:46:32.758Z,2.89
2022-09-20T02:47:05.907Z,3.54
2022-09-20T02:47:35.655Z,3.54
2022-09-20T02:47:52.779Z,3.21
2022-09-20T02:48:26.111Z,3.54
2022-09-20T02:48:43.442Z,2.09
2022-09-20T02:49:13.731Z,2.09
2022-09-20T02:49:35.718Z,2.09
2022-09-20T02:50:01.995Z,1.77
2022-09-20T02:50:32.865Z,1.77
2022-09-20T02:51:05.905Z,1.12
2022-09-20T02:51:35.948Z,1.12
2022-09-20T02:51:53.620Z,1.77
2022-09-20T02:52:24.906Z,1.77
2022-09-20T02:52:42.184Z,2.09
2022-09-20T02:53:13.797Z,2.09
2022-09-20T02:53:36.310Z,2.09
2022-09-20T02:54:01.043Z,1.77
2022-09-20T02:54:32.764Z,1.77
2022-09-20T02:55:04.799Z,1.77
2022-09-20T02:55:35.922Z,1.77
2022-09-20T02:55:52.751Z,1.77
2022-09-20T02:56:24.919Z,2.09
2022-09-20T02:56:42.033Z,1.77
2022-09-20T02:57:12.767Z,2.09
2022-09-20T02:57:35.658Z,2.09
2022-09-20T02:58:00.921Z,1.77
2022-09-20T02:58:32.729Z,1.77
2022-09-20T02:59:05.840Z,.32
2022-09-20T02:59:36.162Z,1.77
2022-09-20T02:59:52.930Z,.32
2022-09-20T03:00:24.986Z,2.09
2022-09-20T03:00:43.734Z,1.12
2022-09-20T03:01:13.771Z,0
2022-09-20T03:01:35.795Z,0
2022-09-20T03:02:01.856Z,0
2022-09-20T03:02:34.587Z,1.12
2022-09-20T03:03:04.895Z,1.12
2022-09-20T03:03:35.667Z,1.12
2022-09-20T03:03:53.553Z,.32
2022-09-20T03:04:24.905Z,.64
2022-09-20T03:04:42.762Z,.32
2022-09-20T03:05:12.866Z,1.12
2022-09-20T03:05:36.482Z,1.77
2022-09-20T03:06:00.949Z,1.77
2022-09-20T03:06:32.732Z,1.77
2022-09-20T03:07:04.793Z,.64
2022-09-20T03:07:35.613Z,.64
2022-09-20T03:07:53.557Z,1.12
2022-09-20T03:08:24.840Z,1.77
2022-09-20T03:08:41.944Z,1.77
2022-09-20T03:09:13.403Z,1.12
2022-09-20T03:09:36.267Z,1.44
2022-09-20T03:10:00.951Z,1.77
2022-09-20T03:10:32.746Z,1.77
2022-09-20T03:11:04.861Z,1.44
2022-09-20T03:11:35.851Z,.32
2022-09-20T03:11:52.783Z,0
2022-09-20T03:12:24.852Z,1.12
2022-09-20T03:12:42.016Z,2.09
2022-09-20T03:13:12.819Z,1.77
2022-09-20T03:13:35.609Z,1.77
2022-09-20T03:14:00.989Z,1.77
2022-09-20T03:14:32.774Z,1.77
2022-09-20T03:15:04.915Z,1.77
2022-09-20T03:15:35.845Z,1.77
2022-09-20T03:15:52.939Z,1.77
2022-09-20T03:16:24.911Z,1.77
2022-09-20T03:16:43.261Z,1.77
2022-09-20T03:17:12.809Z,1.77
2022-09-20T03:17:35.638Z,1.77
2022-09-20T03:18:02.134Z,1.77
2022-09-20T03:18:32.884Z,2.57
2022-09-20T03:19:04.914Z,2.09
2022-09-20T03:19:36.243Z,2.09
2022-09-20T03:19:52.886Z,1.77
2022-09-20T03:20:24.806Z,1.77
2022-09-20T03:20:43.035Z,1.77
2022-09-20T03:21:12.930Z,1.77
2022-09-20T03:21:36.150Z,1.77
2022-09-20T03:22:01.173Z,1.77
2022-09-20T03:22:32.777Z,2.09
2022-09-20T03:23:04.972Z,0
2022-09-20T03:23:35.615Z,0
2022-09-20T03:23:52.827Z,.64
2022-09-20T03:24:25.918Z,1.12
2022-09-20T03:24:42.492Z,1.77
2022-09-20T03:25:12.804Z,1.77
2022-09-20T03:25:36.775Z,2.09
2022-09-20T03:26:01.013Z,2.09
2022-09-20T03:26:32.839Z,2.89
2022-09-20T03:27:05.182Z,2.89
2022-09-20T03:27:35.756Z,2.09
2022-09-20T03:27:52.816Z,2.09
2022-09-20T03:28:24.902Z,2.89
2022-09-20T03:28:42.104Z,3.54
2022-09-20T03:29:12.815Z,3.54
2022-09-20T03:29:36.430Z,3.54
2022-09-20T03:30:01.048Z,3.21
2022-09-20T03:30:33.763Z,2.57
2022-09-20T03:31:04.788Z,2.09
2022-09-20T03:31:35.829Z,1.77
2022-09-20T03:31:54.687Z,1.77
2022-09-20T03:32:26.164Z,1.77
2022-09-20T03:32:43.973Z,1.77
2022-09-20T03:33:12.813Z,2.09
2022-09-20T03:33:36.163Z,3.21
2022-09-20T03:34:02.068Z,2.89
2022-09-20T03:34:36.912Z,2.57
2022-09-20T03:35:04.812Z,1.77
2022-09-20T03:35:37.269Z,1.77
2022-09-20T03:36:08.794Z,2.09
2022-09-20T03:36:36.360Z,1.77
2022-09-20T03:36:56.824Z,1.77
2022-09-20T03:37:29.827Z,1.77
2022-09-20T03:38:01.953Z,2.09
2022-09-20T03:38:32.751Z,1.77
2022-09-20T03:39:04.959Z,2.09
2022-09-20T03:39:35.673Z,2.09
2022-09-20T03:39:52.903Z,2.09
2022-09-20T03:40:25.144Z,3.54
2022-09-20T03:40:46.317Z,2.89
2022-09-20T03:41:12.787Z,2.09
2022-09-20T03:41:36.316Z,2.89
2022-09-20T03:42:00.905Z,2.09
2022-09-20T03:42:32.705Z,1.77
2022-09-20T03:43:05.931Z,1.77
2022-09-20T03:43:35.592Z,1.77
2022-09-20T03:43:52.765Z,1.77
2022-09-20T03:44:24.827Z,1.44
2022-09-20T03:44:43.968Z,1.44
2022-09-20T03:45:12.837Z,1.12
2022-09-20T03:45:36.391Z,.32
2022-09-20T03:46:00.968Z,0
2022-09-20T03:46:32.718Z,0
2022-09-20T03:47:04.825Z,.32
2022-09-20T03:47:36.313Z,.32
2022-09-20T03:47:52.613Z,1.12
2022-09-20T03:48:24.807Z,0
2022-09-20T03:48:42.025Z,.32
2022-09-20T03:49:12.735Z,.32
2022-09-20T03:49:36.381Z,.32
2022-09-20T03:50:01.880Z,0
2022-09-20T03:50:33.749Z,0
2022-09-20T03:51:04.773Z,.32
2022-09-20T03:51:36.795Z,.64
2022-09-20T03:52:08.760Z,2.89
2022-09-20T03:52:36.364Z,2.09
2022-09-20T03:52:56.854Z,0
2022-09-20T03:53:28.737Z,0
2022-09-20T03:54:00.881Z,0
2022-09-20T03:54:32.764Z,0
2022-09-20T03:55:05.878Z,1.12
2022-09-20T03:55:36.107Z,1.12
2022-09-20T03:56:09.685Z,1.44
2022-09-20T03:56:36.242Z,1.77
2022-09-20T03:56:56.985Z,1.77
2022-09-20T03:57:28.882Z,2.09
2022-09-20T03:58:00.815Z,2.09
2022-09-20T03:58:32.793Z,2.89
2022-09-20T03:59:04.951Z,2.09
2022-09-20T03:59:36.436Z,2.09
2022-09-20T04:00:10.464Z,1.77
2022-09-20T04:00:35.561Z,1.77
2022-09-20T04:00:56.943Z,1.44
2022-09-20T04:01:28.942Z,1.77
2022-09-20T04:02:02.280Z,1.77
2022-09-20T04:02:32.977Z,1.77
2022-09-20T04:03:04.828Z,1.44
2022-09-20T04:03:36.980Z,1.77
2022-09-20T04:04:10.062Z,2.09
2022-09-20T04:04:35.621Z,2.09
2022-09-20T04:04:57.383Z,2.09
2022-09-20T04:05:28.836Z,2.09
2022-09-20T04:06:02.159Z,2.09
2022-09-20T04:06:32.784Z,2.09
2022-09-20T04:07:04.851Z,1.44
2022-09-20T04:07:36.508Z,1.77
2022-09-20T04:08:08.935Z,1.77
2022-09-20T04:08:39.884Z,2.09
2022-09-20T04:08:56.839Z,1.77
2022-09-20T04:09:29.954Z,1.77
2022-09-20T04:10:00.872Z,1.77
2022-09-20T04:10:32.869Z,2.09
2022-09-20T04:11:05.016Z,2.89
2022-09-20T04:11:36.463Z,2.09
2022-09-20T04:11:53.760Z,1.12
2022-09-20T04:12:24.766Z,1.77
2022-09-20T04:12:42.399Z,1.44
2022-09-20T04:13:12.799Z,1.12
2022-09-20T04:13:36.366Z,1.12
2022-09-20T04:14:00.962Z,1.77
2022-09-20T04:14:33.008Z,2.09
2022-09-20T04:15:04.831Z,1.77
2022-09-20T04:15:35.608Z,1.77
2022-09-20T04:15:52.798Z,1.77
2022-09-20T04:16:24.840Z,1.77
2022-09-20T04:16:42.035Z,1.44
2022-09-20T04:17:12.696Z,1.77
2022-09-20T04:17:35.579Z,1.77
2022-09-20T04:18:00.884Z,1.12
2022-09-20T04:18:32.780Z,1.77
2022-09-20T04:19:04.765Z,1.12
2022-09-20T04:19:36.653Z,1.12
2022-09-20T04:20:08.733Z,0
2022-09-20T04:20:36.408Z,.32
2022-09-20T04:20:56.826Z,1.77
2022-09-20T04:21:28.746Z,1.44
2022-09-20T04:22:00.899Z,1.12
2022-09-20T04:22:32.851Z,2.09
2022-09-20T04:23:04.843Z,1.44
2022-09-20T04:23:35.636Z,1.12
2022-09-20T04:23:52.960Z,1.44
2022-09-20T04:24:24.821Z,.64
2022-09-20T04:24:42.184Z,1.12
2022-09-20T04:25:13.295Z,1.12
2022-09-20T04:25:36.022Z,.64
2022-09-20T04:26:00.856Z,.64
2022-09-20T04:26:32.734Z,1.77
2022-09-20T04:27:08.125Z,1.77
2022-09-20T04:27:36.451Z,1.77
2022-09-20T04:27:52.643Z,1.44
2022-09-20T04:28:25.999Z,1.77
2022-09-20T04:28:43.810Z,1.44
2022-09-20T04:29:12.803Z,1.44
2022-09-20T04:29:35.586Z,1.77
2022-09-20T04:30:00.986Z,1.77
2022-09-20T04:30:34.288Z,.32
2022-09-20T04:31:04.851Z,1.12
2022-09-20T04:31:37.547Z,.64
2022-09-20T04:32:08.744Z,.32
2022-09-20T04:32:35.608Z,.64
2022-09-20T04:32:56.863Z,.32
2022-09-20T04:33:28.794Z,1.77
2022-09-20T04:34:00.919Z,1.12
2022-09-20T04:34:33.645Z,1.12
2022-09-20T04:35:04.795Z,.64
2022-09-20T04:35:37.061Z,0
2022-09-20T04:36:08.705Z,0
2022-09-20T04:36:35.849Z,0
2022-09-20T04:36:57.754Z,0
2022-09-20T04:37:28.767Z,0
2022-09-20T04:38:01.333Z,0
2022-09-20T04:38:32.822Z,0
2022-09-20T04:39:04.834Z,0
2022-09-20T04:39:36.557Z,0
2022-09-20T04:40:08.749Z,0
2022-09-20T04:40:35.715Z,0
2022-09-20T04:40:57.026Z,0
2022-09-20T04:41:28.828Z,1.12
2022-09-20T04:42:00.992Z,1.77
2022-09-20T04:42:32.861Z,1.77
2022-09-20T04:43:05.278Z,1.77
2022-09-20T04:43:35.506Z,1.44
2022-09-20T04:43:52.842Z,.32
2022-09-20T04:44:24.755Z,.32
2022-09-20T04:44:42.699Z,1.44
2022-09-20T04:45:12.934Z,1.77
2022-09-20T04:45:35.567Z,1.44
2022-09-20T04:46:02.928Z,2.89
2022-09-20T04:46:32.838Z,1.77
2022-09-20T04:47:04.759Z,1.77
2022-09-20T04:47:35.626Z,1.44
2022-09-20T04:47:52.809Z,2.57
2022-09-20T04:48:24.782Z,2.09
2022-09-20T04:48:42.978Z,1.77
2022-09-20T04:49:12.866Z,2.09
2022-09-20T04:49:36.168Z,1.77
2022-09-20T04:50:00.923Z,1.44
2022-09-20T04:50:33.430Z,1.44
2022-09-20T04:51:05.950Z,1.77
2022-09-20T04:51:35.578Z,1.44
2022-09-20T04:51:52.836Z,.32
2022-09-20T04:52:24.782Z,1.44
2022-09-20T04:52:42.592Z,1.77
2022-09-20T04:53:13.713Z,1.77
2022-09-20T04:53:36.540Z,1.44
2022-09-20T04:54:02.057Z,1.77
2022-09-20T04:54:32.782Z,1.77
2022-09-20T04:55:04.738Z,2.09
2022-09-20T04:55:36.734Z,1.77
2022-09-20T04:55:53.632Z,2.09
2022-09-20T04:56:24.812Z,1.44
2022-09-20T04:56:41.949Z,1.44
2022-09-20T04:57:12.746Z,1.12
2022-09-20T04:57:35.481Z,1.12
2022-09-20T04:58:00.864Z,1.77
2022-09-20T04:58:32.909Z,1.77
2022-09-20T04:59:04.781Z,2.09
2022-09-20T04:59:36.611Z,1.77
2022-09-20T05:00:08.928Z,1.44
2022-09-20T05:00:35.165Z,1.44
2022-09-20T05:00:57.469Z,1.77
2022-09-20T05:01:32.304Z,1.77
2022-09-20T05:02:01.066Z,1.77
2022-09-20T05:02:32.969Z,1.44
2022-09-20T05:03:04.782Z,1.77
2022-09-20T05:03:36.560Z,1.44
2022-09-20T05:03:52.942Z,2.57
2022-09-20T05:04:24.802Z,2.09
2022-09-20T05:04:42.006Z,3.54
2022-09-20T05:05:12.810Z,2.89
2022-09-20T05:05:36.705Z,2.09
2022-09-20T05:06:00.801Z,2.09
2022-09-20T05:06:32.913Z,1.77
2022-09-20T05:07:04.770Z,1.77
2022-09-20T05:07:35.484Z,2.09
2022-09-20T05:07:52.732Z,1.77
2022-09-20T05:08:24.869Z,1.77
2022-09-20T05:08:41.932Z,1.77
2022-09-20T05:09:13.577Z,1.77
2022-09-20T05:09:37.113Z,1.77
2022-09-20T05:10:00.890Z,1.44
2022-09-20T05:10:33.011Z,1.77
2022-09-20T05:11:04.999Z,1.77
2022-09-20T05:11:35.816Z,1.77
2022-09-20T05:11:53.716Z,1.77
2022-09-20T05:12:24.901Z,1.12
2022-09-20T05:12:43.794Z,0
2022-09-20T05:13:13.018Z,1.44
2022-09-20T05:13:37.552Z,1.12
2022-09-20T05:14:02.158Z,1.77
2022-09-20T05:14:33.061Z,1.77
2022-09-20T05:15:05.054Z,2.09
2022-09-20T05:15:36.750Z,1.77
2022-09-20T05:15:53.784Z,1.77
2022-09-20T05:16:26.313Z,1.77
2022-09-20T05:16:44.048Z,1.77
2022-09-20T05:17:12.972Z,1.77
2022-09-20T05:17:36.079Z,1.77
2022-09-20T05:18:01.061Z,2.09
2022-09-20T05:18:32.850Z,3.21
2022-09-20T05:19:04.909Z,2.09
2022-09-20T05:19:36.863Z,2.09
2022-09-20T05:19:52.985Z,1.77
2022-09-20T05:20:24.938Z,.32
2022-09-20T05:20:42.893Z,1.12
2022-09-20T05:21:13.852Z,.32
2022-09-20T05:21:36.929Z,0
2022-09-20T05:22:01.183Z,0
2022-09-20T05:22:36.441Z,0
2022-09-20T05:23:04.926Z,0
2022-09-20T05:23:38.729Z,0
2022-09-20T05:24:10.765Z,0
2022-09-20T05:24:40.159Z,0
2022-09-20T05:25:12.363Z,0
2022-09-20T05:25:28.921Z,1.77
2022-09-20T05:26:01.185Z,2.57
2022-09-20T05:26:33.893Z,2.09
2022-09-20T05:27:05.496Z,1.77
2022-09-20T05:27:36.842Z,1.77
2022-09-20T05:28:10.724Z,1.77
2022-09-20T05:28:36.052Z,1.77
2022-09-20T05:28:57.225Z,1.44
2022-09-20T05:29:28.908Z,1.77
2022-09-20T05:30:05.048Z,1.44
2022-09-20T05:30:33.658Z,1.77
2022-09-20T05:31:04.910Z,1.44
2022-09-20T05:31:36.607Z,1.77
2022-09-20T05:31:52.827Z,1.44
2022-09-20T05:32:26.114Z,2.09
2022-09-20T05:32:44.909Z,3.54
2022-09-20T05:33:12.994Z,4.02
2022-09-20T05:33:37.038Z,4.34
2022-09-20T05:34:01.033Z,3.54
2022-09-20T05:34:32.993Z,3.54
2022-09-20T05:35:04.890Z,1.77
2022-09-20T05:35:36.815Z,2.09
2022-09-20T05:36:08.858Z,1.77
2022-09-20T05:36:35.625Z,1.44
2022-09-20T05:36:57.201Z,.64
2022-09-20T05:37:29.042Z,1.44
2022-09-20T05:38:01.071Z,1.77
2022-09-20T05:38:37.502Z,2.89
2022-09-20T05:39:05.077Z,2.09
2022-09-20T05:39:35.768Z,1.44
2022-09-20T05:39:52.998Z,1.77
2022-09-20T05:40:24.967Z,3.54
2022-09-20T05:40:42.110Z,3.54
2022-09-20T05:41:13.149Z,2.57
2022-09-20T05:41:38.546Z,2.09
2022-09-20T05:42:01.932Z,1.12
2022-09-20T05:42:33.016Z,1.44
2022-09-20T05:43:06.265Z,2.09
2022-09-20T05:43:35.704Z,1.77
2022-09-20T05:43:53.849Z,1.12
2022-09-20T05:44:24.931Z,1.12
2022-09-20T05:44:42.169Z,0
2022-09-20T05:45:13.077Z,.32
2022-09-20T05:45:36.931Z,.64
2022-09-20T05:46:01.173Z,0
2022-09-20T05:46:33.120Z,0
2022-09-20T05:47:05.763Z,.32
2022-09-20T05:47:36.779Z,0
2022-09-20T05:47:53.003Z,0
2022-09-20T05:48:24.959Z,0
2022-09-20T05:48:42.097Z,.32
2022-09-20T05:49:12.950Z,0
2022-09-20T05:49:35.784Z,0
2022-09-20T05:50:02.481Z,0
2022-09-20T05:50:32.987Z,0
2022-09-20T05:51:04.922Z,1.77
2022-09-20T05:51:35.717Z,1.77
2022-09-20T05:51:52.983Z,2.57
2022-09-20T05:52:24.927Z,3.21
2022-09-20T05:52:42.213Z,2.89
2022-09-20T05:53:12.989Z,2.89
2022-09-20T05:53:36.712Z,2.09
2022-09-20T05:54:01.109Z,1.77
2022-09-20T05:54:33.075Z,1.44
2022-09-20T05:55:04.965Z,1.77
2022-09-20T05:55:35.636Z,1.77
2022-09-20T05:55:53.006Z,1.77
2022-09-20T05:56:25.011Z,1.77
2022-09-20T05:56:42.369Z,1.77
2022-09-20T05:57:13.929Z,2.09
2022-09-20T05:57:36.840Z,2.09
2022-09-20T05:58:01.027Z,2.89
2022-09-20T05:58:33.879Z,1.77
2022-09-20T05:59:06.247Z,2.09
2022-09-20T05:59:36.041Z,1.77
2022-09-20T05:59:53.662Z,1.77
2022-09-20T06:00:25.059Z,1.44
2022-09-20T06:00:42.115Z,1.77
2022-09-20T06:01:13.314Z,1.44
2022-09-20T06:01:35.908Z,1.44
2022-09-20T06:02:01.315Z,1.44
2022-09-20T06:02:33.102Z,1.44
2022-09-20T06:03:04.891Z,.32
2022-09-20T06:03:36.840Z,1.12
2022-09-20T06:03:54.087Z,.64
2022-09-20T06:04:24.951Z,.64
2022-09-20T06:04:42.163Z,0
2022-09-20T06:05:12.932Z,0
2022-09-20T06:05:35.922Z,0
2022-09-20T06:06:01.225Z,.32
2022-09-20T06:06:33.703Z,1.12
2022-09-20T06:07:04.863Z,.32
2022-09-20T06:07:35.861Z,1.12
2022-09-20T06:07:52.990Z,.32
2022-09-20T06:08:26.384Z,.64
2022-09-20T06:08:42.151Z,1.77
2022-09-20T06:09:13.315Z,0
2022-09-20T06:09:36.997Z,0
2022-09-20T06:10:01.043Z,0
2022-09-20T06:10:33.056Z,0
2022-09-20T06:11:04.920Z,0
2022-09-20T06:11:35.653Z,0
2022-09-20T06:11:53.047Z,0
2022-09-20T06:12:25.574Z,0
2022-09-20T06:12:42.738Z,0
2022-09-20T06:13:12.957Z,0
2022-09-20T06:13:35.587Z,.32
2022-09-20T06:14:01.018Z,.64